createdAt,value
2023-03-07T00:00:54.721Z,0.00
2023-03-07T00:01:54.714Z,0.00
2023-03-07T00:02:54.742Z,0.00
2023-03-07T00:03:54.763Z,0.00
2023-03-07T00:04:54.676Z,0.00
2023-03-07T00:05:54.667Z,0.00
2023-03-07T00:06:54.656Z,0.00
2023-03-07T00:07:54.648Z,0.00
2023-03-07T00:08:54.667Z,0.00
2023-03-07T00:09:54.625Z,0.00
2023-03-07T00:10:54.612Z,0.00
2023-03-07T00:11:54.605Z,0.00
2023-03-07T00:12:54.600Z,0.00
2023-03-07T00:13:54.581Z,0.00
2023-03-07T00:14:54.569Z,0.00
2023-03-07T00:15:54.601Z,0.00
2023-03-07T00:16:54.546Z,0.00
2023-03-07T00:17:54.564Z,0.00
2023-03-07T00:18:54.527Z,0.00
2023-03-07T00:19:54.527Z,0.00
2023-03-07T00:20:54.505Z,0.00
2023-03-07T00:21:54.496Z,0.00
2023-03-07T00:22:54.485Z,0.00
2023-03-07T00:23:54.473Z,0.00
2023-03-07T00:24:54.485Z,0.00
2023-03-07T00:25:54.452Z,0.00
2023-03-07T00:26:54.439Z,0.00
2023-03-07T00:27:54.429Z,0.00
2023-03-07T00:28:54.419Z,0.00
2023-03-07T00:29:54.412Z,0.00
2023-03-07T00:30:54.399Z,0.00
2023-03-07T00:31:54.389Z,0.00
2023-03-07T00:32:54.374Z,0.00
2023-03-07T00:33:54.370Z,0.00
2023-03-07T00:34:54.359Z,0.00
2023-03-07T00:35:54.427Z,0.00
2023-03-07T00:36:54.334Z,0.00
2023-03-07T00:37:54.324Z,0.00
2023-03-07T00:38:54.314Z,0.00
2023-03-07T00:39:54.305Z,0.00
2023-03-07T00:40:54.316Z,0.00
2023-03-07T00:41:54.285Z,0.00
2023-03-07T00:42:54.271Z,0.00
2023-03-07T00:43:54.261Z,0.00
2023-03-07T00:44:54.249Z,0.00
2023-03-07T00:45:54.549Z,0.00
2023-03-07T00:46:54.230Z,0.00
2023-03-07T00:47:54.218Z,0.00
2023-03-07T00:48:54.211Z,0.00
2023-03-07T00:49:54.213Z,0.00
2023-03-07T00:50:54.188Z,0.00
2023-03-07T00:51:54.179Z,0.00
2023-03-07T00:52:54.170Z,0.00
2023-03-07T00:53:54.162Z,0.00
2023-03-07T00:54:54.144Z,0.00
2023-03-07T00:55:54.140Z,0.00
2023-03-07T00:56:54.147Z,0.00
2023-03-07T00:57:54.130Z,0.00
2023-03-07T00:58:54.102Z,0.00
2023-03-07T00:59:54.093Z,0.00
2023-03-07T01:00:54.113Z,0.00
2023-03-07T01:01:54.071Z,0.00
2023-03-07T01:02:55.368Z,0.00
2023-03-07T01:03:54.392Z,0.00
2023-03-07T01:04:54.040Z,0.00
2023-03-07T01:05:54.027Z,0.00
2023-03-07T01:06:54.017Z,0.00
2023-03-07T01:07:54.005Z,0.00
2023-03-07T01:08:53.993Z,0.00
2023-03-07T01:09:53.987Z,0.00
2023-03-07T01:10:53.971Z,0.00
2023-03-07T01:11:53.960Z,0.00
2023-03-07T01:12:53.976Z,0.00
2023-03-07T01:13:53.942Z,0.00
2023-03-07T01:14:53.928Z,0.00
2023-03-07T01:15:53.917Z,0.00
2023-03-07T01:16:54.046Z,0.00
2023-03-07T01:17:53.896Z,0.00
2023-03-07T01:18:53.884Z,0.00
2023-03-07T01:19:53.876Z,0.00
2023-03-07T01:20:53.867Z,0.00
2023-03-07T01:21:53.852Z,0.00
2023-03-07T01:22:53.840Z,0.00
2023-03-07T01:23:53.840Z,0.00
2023-03-07T01:24:53.828Z,0.00
2023-03-07T01:25:53.832Z,0.00
2023-03-07T01:26:53.798Z,0.00
2023-03-07T01:27:53.789Z,0.00
2023-03-07T01:28:53.805Z,0.00
2023-03-07T01:29:53.771Z,0.00
2023-03-07T01:30:53.755Z,0.00
2023-03-07T01:31:53.792Z,0.00
2023-03-07T01:32:53.730Z,0.00
2023-03-07T01:33:53.722Z,0.00
2023-03-07T01:34:53.709Z,0.00
2023-03-07T01:35:53.803Z,0.00
2023-03-07T01:36:53.709Z,0.00
2023-03-07T01:37:53.677Z,0.00
2023-03-07T01:38:53.667Z,0.00
2023-03-07T01:39:53.658Z,0.00
2023-03-07T01:40:53.647Z,0.00
2023-03-07T01:41:53.633Z,0.00
2023-03-07T01:42:53.630Z,0.00
2023-03-07T01:43:53.613Z,0.00
2023-03-07T01:44:53.632Z,0.00
2023-03-07T01:45:53.640Z,0.00
2023-03-07T01:46:53.579Z,0.00
2023-03-07T01:47:53.577Z,0.00
2023-03-07T01:48:53.558Z,0.00
2023-03-07T01:49:53.556Z,0.00
2023-03-07T01:50:53.534Z,0.00
2023-03-07T01:51:53.525Z,0.00
2023-03-07T01:52:53.552Z,0.00
2023-03-07T01:53:53.569Z,0.00
2023-03-07T01:54:53.495Z,0.00
2023-03-07T01:55:53.479Z,0.00
2023-03-07T01:56:53.472Z,0.00
2023-03-07T01:57:53.453Z,0.00
2023-03-07T01:58:53.445Z,0.00
2023-03-07T01:59:53.431Z,0.00
2023-03-07T02:00:53.559Z,0.00
2023-03-07T02:01:53.410Z,0.00
2023-03-07T02:02:53.401Z,0.00
2023-03-07T02:03:53.436Z,0.00
2023-03-07T02:04:53.380Z,0.00
2023-03-07T02:05:53.380Z,0.00
2023-03-07T02:06:53.356Z,0.00
2023-03-07T02:07:53.343Z,0.00
2023-03-07T02:08:53.342Z,0.00
2023-03-07T02:09:53.331Z,0.00
2023-03-07T02:10:53.313Z,0.00
2023-03-07T02:11:53.306Z,0.00
2023-03-07T02:12:53.291Z,0.00
2023-03-07T02:13:53.279Z,0.00
2023-03-07T02:14:53.272Z,0.00
2023-03-07T02:15:53.309Z,0.00
2023-03-07T02:16:53.271Z,0.00
2023-03-07T02:17:53.237Z,0.00
2023-03-07T02:18:53.231Z,0.00
2023-03-07T02:19:53.230Z,0.00
2023-03-07T02:20:53.224Z,0.00
2023-03-07T02:21:53.216Z,0.00
2023-03-07T02:22:53.186Z,0.00
2023-03-07T02:23:53.172Z,0.00
2023-03-07T02:24:53.166Z,0.00
2023-03-07T02:25:53.152Z,0.00
2023-03-07T02:26:53.166Z,0.00
2023-03-07T02:27:53.165Z,0.00
2023-03-07T02:28:53.126Z,0.00
2023-03-07T02:29:53.119Z,0.00
2023-03-07T02:30:53.124Z,0.00
2023-03-07T02:31:53.092Z,0.00
2023-03-07T02:32:53.120Z,0.00
2023-03-07T02:33:53.071Z,0.00
2023-03-07T02:34:53.059Z,0.00
2023-03-07T02:35:53.133Z,0.00
2023-03-07T02:36:53.038Z,0.00
2023-03-07T02:37:53.027Z,0.00
2023-03-07T02:38:53.018Z,0.00
2023-03-07T02:39:53.007Z,0.00
2023-03-07T02:40:52.997Z,0.00
2023-03-07T02:41:52.984Z,0.00
2023-03-07T02:42:52.982Z,0.00
2023-03-07T02:43:52.967Z,0.00
2023-03-07T02:44:52.955Z,0.00
2023-03-07T02:45:53.078Z,0.00
2023-03-07T02:46:52.942Z,0.00
2023-03-07T02:47:52.929Z,0.00
2023-03-07T02:48:52.937Z,0.00
2023-03-07T02:49:52.899Z,0.00
2023-03-07T02:50:52.905Z,0.00
2023-03-07T02:51:52.880Z,0.00
2023-03-07T02:52:52.867Z,0.00
2023-03-07T02:53:52.854Z,0.00
2023-03-07T02:54:52.846Z,0.00
2023-03-07T02:55:52.841Z,0.00
2023-03-07T02:56:52.898Z,0.00
2023-03-07T02:57:52.932Z,0.00
2023-03-07T02:58:52.897Z,0.00
2023-03-07T02:59:52.874Z,0.00
2023-03-07T03:00:52.949Z,0.00
2023-03-07T03:01:53.017Z,0.00
2023-03-07T03:02:52.768Z,0.00
2023-03-07T03:03:52.757Z,0.00
2023-03-07T03:04:52.883Z,0.00
2023-03-07T03:05:52.731Z,0.00
2023-03-07T03:06:52.732Z,0.00
2023-03-07T03:07:52.720Z,0.00
2023-03-07T03:08:52.702Z,0.00
2023-03-07T03:09:52.691Z,0.00
2023-03-07T03:10:52.681Z,0.00
2023-03-07T03:11:52.672Z,0.00
2023-03-07T03:12:52.662Z,0.00
2023-03-07T03:13:52.648Z,0.00
2023-03-07T03:14:52.647Z,0.00
2023-03-07T03:15:52.673Z,0.00
2023-03-07T03:16:52.616Z,0.00
2023-03-07T03:17:52.604Z,0.00
2023-03-07T03:18:52.899Z,0.00
2023-03-07T03:19:52.589Z,0.00
2023-03-07T03:20:52.598Z,0.00
2023-03-07T03:21:52.563Z,0.00
2023-03-07T03:22:52.550Z,0.00
2023-03-07T03:23:52.540Z,0.00
2023-03-07T03:24:52.529Z,0.00
2023-03-07T03:25:52.519Z,0.00
2023-03-07T03:26:52.508Z,0.00
2023-03-07T03:27:52.495Z,0.00
2023-03-07T03:28:52.488Z,0.00
2023-03-07T03:29:52.479Z,0.00
2023-03-07T03:30:52.463Z,0.00
2023-03-07T03:31:52.450Z,0.00
2023-03-07T03:32:52.440Z,0.00
2023-03-07T03:33:52.439Z,0.00
2023-03-07T03:34:52.418Z,0.00
2023-03-07T03:35:52.513Z,0.00
2023-03-07T03:36:52.440Z,0.00
2023-03-07T03:37:52.408Z,0.00
2023-03-07T03:38:52.372Z,0.00
2023-03-07T03:39:52.367Z,0.00
2023-03-07T03:40:52.355Z,0.00
2023-03-07T03:41:52.338Z,0.00
2023-03-07T03:42:52.328Z,0.00
2023-03-07T03:43:52.318Z,0.00
2023-03-07T03:44:52.310Z,0.00
2023-03-07T03:45:52.294Z,0.00
2023-03-07T03:46:52.361Z,0.00
2023-03-07T03:47:52.273Z,0.00
2023-03-07T03:48:52.266Z,0.00
2023-03-07T03:49:52.267Z,0.00
2023-03-07T03:50:52.245Z,0.00
2023-03-07T03:51:52.226Z,0.00
2023-03-07T03:52:52.240Z,0.00
2023-03-07T03:53:52.204Z,0.00
2023-03-07T03:54:52.196Z,0.00
2023-03-07T03:55:52.183Z,0.00
2023-03-07T03:56:52.174Z,0.00
2023-03-07T03:57:52.164Z,0.00
2023-03-07T03:58:52.155Z,0.00
2023-03-07T03:59:52.140Z,0.00
2023-03-07T04:00:52.132Z,0.00
2023-03-07T04:01:52.264Z,0.00
2023-03-07T04:02:52.212Z,0.00
2023-03-07T04:03:52.110Z,0.00
2023-03-07T04:04:52.087Z,0.00
2023-03-07T04:05:52.092Z,0.00
2023-03-07T04:06:52.065Z,0.00
2023-03-07T04:07:52.416Z,0.00
2023-03-07T04:08:52.072Z,0.00
2023-03-07T04:09:52.027Z,0.00
2023-03-07T04:10:52.020Z,0.00
2023-03-07T04:11:52.002Z,0.00
2023-03-07T04:12:51.994Z,0.00
2023-03-07T04:13:51.989Z,0.00
2023-03-07T04:14:51.974Z,0.00
2023-03-07T04:15:51.959Z,0.00
2023-03-07T04:16:51.961Z,0.00
2023-03-07T04:17:51.941Z,0.00
2023-03-07T04:18:51.933Z,0.00
2023-03-07T04:19:51.921Z,0.00
2023-03-07T04:20:51.908Z,0.00
2023-03-07T04:21:51.897Z,0.00
2023-03-07T04:22:51.886Z,0.00
2023-03-07T04:23:51.873Z,0.00
2023-03-07T04:24:51.887Z,0.00
2023-03-07T04:25:51.893Z,0.00
2023-03-07T04:26:51.839Z,0.00
2023-03-07T04:27:51.826Z,0.00
2023-03-07T04:28:51.826Z,0.00
2023-03-07T04:29:51.809Z,0.00
2023-03-07T04:30:51.799Z,0.00
2023-03-07T04:31:51.889Z,0.00
2023-03-07T04:32:51.773Z,0.00
2023-03-07T04:33:51.766Z,0.00
2023-03-07T04:34:51.750Z,0.00
2023-03-07T04:35:51.837Z,0.00
2023-03-07T04:36:51.738Z,0.00
2023-03-07T04:37:51.714Z,0.00
2023-03-07T04:38:51.717Z,0.00
2023-03-07T04:39:51.693Z,0.00
2023-03-07T04:40:51.795Z,0.00
2023-03-07T04:41:51.677Z,0.00
2023-03-07T04:42:51.665Z,0.00
2023-03-07T04:43:51.660Z,0.00
2023-03-07T04:44:51.657Z,0.00
2023-03-07T04:45:51.674Z,0.00
2023-03-07T04:46:51.620Z,0.00
2023-03-07T04:47:51.607Z,0.00
2023-03-07T04:48:51.600Z,0.00
2023-03-07T04:49:51.592Z,0.00
2023-03-07T04:50:51.581Z,0.00
2023-03-07T04:51:51.714Z,0.00
2023-03-07T04:52:51.553Z,0.00
2023-03-07T04:53:51.548Z,0.00
2023-03-07T04:54:51.530Z,0.00
2023-03-07T04:55:51.519Z,0.00
2023-03-07T04:56:51.575Z,0.00
2023-03-07T04:57:51.509Z,0.00
2023-03-07T04:58:51.495Z,0.00
2023-03-07T04:59:51.476Z,0.00
2023-03-07T05:01:51.478Z,0.00
2023-03-07T05:02:51.449Z,0.00
2023-03-07T05:03:51.436Z,0.00
2023-03-07T05:04:51.423Z,0.00
2023-03-07T05:05:51.417Z,0.00
2023-03-07T05:06:51.406Z,0.00
2023-03-07T05:07:51.392Z,0.00
2023-03-07T05:08:51.378Z,0.00
2023-03-07T05:09:51.386Z,0.00
2023-03-07T05:10:51.358Z,0.00
2023-03-07T05:11:53.532Z,0.00
2023-03-07T05:12:51.358Z,0.00
2023-03-07T05:13:51.325Z,0.00
2023-03-07T05:14:51.338Z,0.00
2023-03-07T05:15:51.506Z,0.00
2023-03-07T05:16:51.291Z,0.00
2023-03-07T05:17:51.284Z,0.00
2023-03-07T05:18:51.284Z,0.00
2023-03-07T05:19:51.260Z,0.00
2023-03-07T05:20:51.247Z,0.00
2023-03-07T05:21:51.241Z,0.00
2023-03-07T05:22:51.224Z,0.00
2023-03-07T05:23:51.264Z,0.00
2023-03-07T05:24:51.202Z,0.00
2023-03-07T05:25:51.197Z,0.00
2023-03-07T05:26:51.181Z,0.00
2023-03-07T05:27:51.169Z,0.00
2023-03-07T05:28:51.193Z,0.00
2023-03-07T05:29:51.147Z,0.00
2023-03-07T05:30:51.161Z,0.00
2023-03-07T05:31:51.128Z,0.00
2023-03-07T05:32:51.121Z,0.00
2023-03-07T05:33:51.103Z,0.00
2023-03-07T05:34:51.095Z,0.00
2023-03-07T05:35:51.147Z,0.00
2023-03-07T05:36:51.072Z,0.00
2023-03-07T05:37:51.063Z,0.00
2023-03-07T05:38:51.052Z,0.00
2023-03-07T05:39:51.041Z,0.00
2023-03-07T05:40:51.028Z,0.00
2023-03-07T05:41:51.015Z,0.00
2023-03-07T05:42:51.006Z,0.00
2023-03-07T05:43:50.994Z,0.00
2023-03-07T05:44:51.024Z,0.00
2023-03-07T05:45:51.047Z,0.00
2023-03-07T05:46:50.962Z,0.00
2023-03-07T05:47:50.952Z,0.00
2023-03-07T05:48:50.941Z,0.00
2023-03-07T05:49:50.933Z,0.00
2023-03-07T05:50:50.922Z,0.00
2023-03-07T05:51:50.911Z,0.00
2023-03-07T05:52:50.912Z,0.00
2023-03-07T05:53:50.889Z,0.00
2023-03-07T05:54:51.440Z,0.00
2023-03-07T05:55:50.871Z,0.00
2023-03-07T05:56:50.858Z,0.00
2023-03-07T05:57:50.845Z,0.00
2023-03-07T05:58:50.838Z,1.97
2023-03-07T05:59:50.826Z,2.18
2023-03-07T06:00:50.874Z,2.08
2023-03-07T06:01:50.803Z,3.12
2023-03-07T06:02:50.821Z,3.33
2023-03-07T06:03:50.866Z,6.97
2023-03-07T06:04:50.770Z,8.22
2023-03-07T06:05:50.760Z,8.63
2023-03-07T06:06:50.744Z,7.49
2023-03-07T06:07:50.735Z,10.30
2023-03-07T06:08:50.722Z,9.05
2023-03-07T06:09:50.719Z,8.42
2023-03-07T06:10:50.814Z,8.32
2023-03-07T06:11:50.697Z,10.60
2023-03-07T06:12:50.681Z,10.60
2023-03-07T06:13:50.668Z,12.68
2023-03-07T06:14:50.661Z,14.76
2023-03-07T06:15:50.709Z,15.08
2023-03-07T06:16:50.662Z,15.28
2023-03-07T06:17:50.627Z,15.80
2023-03-07T06:18:50.615Z,16.85
2023-03-07T06:19:50.604Z,16.74
2023-03-07T06:20:50.590Z,17.36
2023-03-07T06:21:50.585Z,19.65
2023-03-07T06:22:50.572Z,21.11
2023-03-07T06:23:50.562Z,21.83
2023-03-07T06:24:50.551Z,24.84
2023-03-07T06:25:50.544Z,24.22
2023-03-07T06:26:50.526Z,25.37
2023-03-07T06:27:50.524Z,26.83
2023-03-07T06:28:50.513Z,33.47
2023-03-07T06:29:50.494Z,38.25
2023-03-07T06:30:50.513Z,34.92
2023-03-07T06:31:50.521Z,36.48
2023-03-07T06:32:50.489Z,35.65
2023-03-07T06:33:50.451Z,35.65
2023-03-07T06:34:50.447Z,36.27
2023-03-07T06:35:50.461Z,36.69
2023-03-07T06:36:50.418Z,42.30
2023-03-07T06:37:50.406Z,46.67
2023-03-07T06:38:50.400Z,45.61
2023-03-07T06:39:50.392Z,45.82
2023-03-07T06:40:50.371Z,53.92
2023-03-07T06:41:50.363Z,51.53
2023-03-07T06:42:50.350Z,51.43
2023-03-07T06:43:50.345Z,55.48
2023-03-07T06:44:50.332Z,54.63
2023-03-07T06:45:50.374Z,58.36
2023-03-07T06:46:50.313Z,57.95
2023-03-07T06:47:50.306Z,57.43
2023-03-07T06:48:50.349Z,60.55
2023-03-07T06:49:50.273Z,65.53
2023-03-07T06:50:50.283Z,67.30
2023-03-07T06:51:50.253Z,65.63
2023-03-07T06:52:50.242Z,70.20
2023-03-07T06:53:50.232Z,65.22
2023-03-07T06:54:50.227Z,66.78
2023-03-07T06:55:50.213Z,70.10
2023-03-07T06:56:50.202Z,65.42
2023-03-07T06:57:50.196Z,66.05
2023-03-07T06:58:50.180Z,68.75
2023-03-07T06:59:50.176Z,64.90
2023-03-07T07:00:50.161Z,64.07
2023-03-07T07:01:50.309Z,62.62
2023-03-07T07:02:50.290Z,63.45
2023-03-07T07:03:50.129Z,64.46
2023-03-07T07:04:50.137Z,67.37
2023-03-07T07:05:50.104Z,65.08
2023-03-07T07:06:50.097Z,65.60
2023-03-07T07:07:50.083Z,66.75
2023-03-07T07:08:50.069Z,67.79
2023-03-07T07:09:50.065Z,67.27
2023-03-07T07:10:50.048Z,70.79
2023-03-07T07:11:50.038Z,74.91
2023-03-07T07:12:50.028Z,73.67
2023-03-07T07:13:50.016Z,70.87
2023-03-07T07:14:50.008Z,71.49
2023-03-07T07:15:49.995Z,68.79
2023-03-07T07:16:50.027Z,71.80
2023-03-07T07:17:49.980Z,71.83
2023-03-07T07:18:49.968Z,75.15
2023-03-07T07:19:49.983Z,71.91
2023-03-07T07:20:50.019Z,73.98
2023-03-07T07:21:49.924Z,72.74
2023-03-07T07:22:49.918Z,76.99
2023-03-07T07:23:49.913Z,76.47
2023-03-07T07:24:49.902Z,76.85
2023-03-07T07:25:49.878Z,77.99
2023-03-07T07:26:49.867Z,80.16
2023-03-07T07:27:49.864Z,77.99
2023-03-07T07:28:49.842Z,77.37
2023-03-07T07:29:49.848Z,80.37
2023-03-07T07:30:49.819Z,78.92
2023-03-07T07:31:50.056Z,79.65
2023-03-07T07:32:49.995Z,76.85
2023-03-07T07:33:49.796Z,78.92
2023-03-07T07:34:49.788Z,77.78
2023-03-07T07:35:49.825Z,76.75
2023-03-07T07:36:49.850Z,74.67
2023-03-07T07:37:49.745Z,77.16
2023-03-07T07:38:49.733Z,73.32
2023-03-07T07:39:49.723Z,73.98
2023-03-07T07:40:49.712Z,71.18
2023-03-07T07:41:49.700Z,74.91
2023-03-07T07:42:49.691Z,71.49
2023-03-07T07:43:49.683Z,69.93
2023-03-07T07:44:49.681Z,71.91
2023-03-07T07:45:49.707Z,69.52
2023-03-07T07:46:49.647Z,68.07
2023-03-07T07:47:49.644Z,68.59
2023-03-07T07:48:49.635Z,66.93
2023-03-07T07:49:49.622Z,65.26
2023-03-07T07:50:49.603Z,67.55
2023-03-07T07:51:49.596Z,66.93
2023-03-07T07:52:49.619Z,64.95
2023-03-07T07:53:49.569Z,62.98
2023-03-07T07:54:49.557Z,66.20
2023-03-07T07:55:49.554Z,63.71
2023-03-07T07:56:49.540Z,60.49
2023-03-07T07:57:49.529Z,63.29
2023-03-07T07:58:49.515Z,62.15
2023-03-07T07:59:49.540Z,61.71
2023-03-07T08:00:49.493Z,66.30
2023-03-07T08:01:49.498Z,62.88
2023-03-07T08:02:49.473Z,63.81
2023-03-07T08:03:49.542Z,61.74
2023-03-07T08:04:49.448Z,63.40
2023-03-07T08:05:49.439Z,63.09
2023-03-07T08:06:49.430Z,58.42
2023-03-07T08:07:49.416Z,58.11
2023-03-07T08:08:49.438Z,60.60
2023-03-07T08:09:49.395Z,59.25
2023-03-07T08:10:49.380Z,61.94
2023-03-07T08:11:49.377Z,57.38
2023-03-07T08:12:49.359Z,55.93
2023-03-07T08:13:49.349Z,58.73
2023-03-07T08:14:49.337Z,58.94
2023-03-07T08:15:49.410Z,65.89
2023-03-07T08:16:49.327Z,62.64
2023-03-07T08:17:49.303Z,64.82
2023-03-07T08:18:49.309Z,63.26
2023-03-07T08:19:49.292Z,60.77
2023-03-07T08:20:49.372Z,60.77
2023-03-07T08:21:49.264Z,63.26
2023-03-07T08:22:49.253Z,68.96
2023-03-07T08:23:49.240Z,68.13
2023-03-07T08:24:49.250Z,71.87
2023-03-07T08:25:49.215Z,71.53
2023-03-07T08:26:49.206Z,64.89
2023-03-07T08:27:49.190Z,71.73
2023-03-07T08:28:49.182Z,69.32
2023-03-07T08:29:49.177Z,72.53
2023-03-07T08:30:49.202Z,77.40
2023-03-07T08:31:49.149Z,74.19
2023-03-07T08:32:49.171Z,75.84
2023-03-07T08:33:49.130Z,77.40
2023-03-07T08:34:49.114Z,74.08
2023-03-07T08:35:49.175Z,79.16
2023-03-07T08:36:49.091Z,77.40
2023-03-07T08:37:49.110Z,80.19
2023-03-07T08:38:49.071Z,76.43
2023-03-07T08:39:49.069Z,78.40
2023-03-07T08:40:49.074Z,80.78
2023-03-07T08:41:49.054Z,82.95
2023-03-07T08:42:49.033Z,79.85
2023-03-07T08:43:49.031Z,82.29
2023-03-07T08:44:49.037Z,83.33
2023-03-07T08:45:48.992Z,80.22
2023-03-07T08:46:48.979Z,84.06
2023-03-07T08:47:48.968Z,81.57
2023-03-07T08:48:48.960Z,86.85
2023-03-07T08:49:48.964Z,84.09
2023-03-07T08:50:48.934Z,81.71
2023-03-07T08:51:48.944Z,82.75
2023-03-07T08:52:48.910Z,83.51
2023-03-07T08:53:48.914Z,81.34
2023-03-07T08:54:48.891Z,76.15
2023-03-07T08:55:48.885Z,77.61
2023-03-07T08:56:49.003Z,71.67
2023-03-07T08:57:48.854Z,74.71
2023-03-07T08:58:48.850Z,73.67
2023-03-07T08:59:48.840Z,68.56
2023-03-07T09:00:48.828Z,66.69
2023-03-07T09:01:48.881Z,69.90
2023-03-07T09:02:48.824Z,75.12
2023-03-07T09:03:48.788Z,70.87
2023-03-07T09:04:48.871Z,75.84
2023-03-07T09:05:48.763Z,69.84
2023-03-07T09:06:48.752Z,71.77
2023-03-07T09:07:48.748Z,66.59
2023-03-07T09:08:48.727Z,72.71
2023-03-07T09:09:48.738Z,72.19
2023-03-07T09:10:48.714Z,73.74
2023-03-07T09:11:48.698Z,72.74
2023-03-07T09:12:48.710Z,70.84
2023-03-07T09:13:52.450Z,66.08
2023-03-07T09:14:48.685Z,67.35
2023-03-07T09:15:48.655Z,64.24
2023-03-07T09:16:48.642Z,64.24
2023-03-07T09:17:48.636Z,62.79
2023-03-07T09:18:48.622Z,60.41
2023-03-07T09:19:48.613Z,60.72
2023-03-07T09:20:48.600Z,58.95
2023-03-07T09:21:48.588Z,58.64
2023-03-07T09:22:48.576Z,59.37
2023-03-07T09:23:48.572Z,56.37
2023-03-07T09:24:48.564Z,56.05
2023-03-07T09:25:48.551Z,52.76
2023-03-07T09:26:48.535Z,54.00
2023-03-07T09:27:50.416Z,52.25
2023-03-07T09:28:48.534Z,51.31
2023-03-07T09:29:48.519Z,53.49
2023-03-07T09:30:48.492Z,44.45
2023-03-07T09:31:48.512Z,43.21
2023-03-07T09:32:48.468Z,46.11
2023-03-07T09:33:48.459Z,52.43
2023-03-07T09:34:48.486Z,51.39
2023-03-07T09:35:48.495Z,49.32
2023-03-07T09:36:48.429Z,48.90
2023-03-07T09:37:48.421Z,46.81
2023-03-07T09:38:48.404Z,44.95
2023-03-07T09:39:48.404Z,51.78
2023-03-07T09:40:48.413Z,54.99
2023-03-07T09:41:48.372Z,53.44
2023-03-07T09:42:48.360Z,53.96
2023-03-07T09:43:48.350Z,54.89
2023-03-07T09:44:48.359Z,51.47
2023-03-07T09:45:48.412Z,64.62
2023-03-07T09:46:48.319Z,63.79
2023-03-07T09:47:48.314Z,60.77
2023-03-07T09:48:48.296Z,70.60
2023-03-07T09:49:48.283Z,63.97
2023-03-07T09:50:48.272Z,69.04
2023-03-07T09:51:48.270Z,67.46
2023-03-07T09:52:48.249Z,64.46
2023-03-07T09:53:48.243Z,73.67
2023-03-07T09:54:48.226Z,72.91
2023-03-07T09:55:48.250Z,69.09
2023-03-07T09:56:48.206Z,72.91
2023-03-07T09:57:48.235Z,72.05
2023-03-07T09:58:48.222Z,75.88
2023-03-07T09:59:48.176Z,73.19
2023-03-07T10:00:48.306Z,76.81
2023-03-07T10:01:48.193Z,80.63
2023-03-07T10:02:48.310Z,80.60
2023-03-07T10:03:48.307Z,86.07
2023-03-07T10:04:48.287Z,81.59
2023-03-07T10:05:48.283Z,84.28
2023-03-07T10:06:48.227Z,91.30
2023-03-07T10:07:48.094Z,89.13
2023-03-07T10:08:48.075Z,96.26
2023-03-07T10:09:48.065Z,91.92
2023-03-07T10:10:48.057Z,91.40
2023-03-07T10:11:48.105Z,90.53
2023-03-07T10:12:48.032Z,85.44
2023-03-07T10:13:48.025Z,96.37
2023-03-07T10:14:48.007Z,90.70
2023-03-07T10:15:48.052Z,90.66
2023-03-07T10:16:48.134Z,94.31
2023-03-07T10:17:47.979Z,91.28
2023-03-07T10:18:47.977Z,94.99
2023-03-07T10:19:47.954Z,93.90
2023-03-07T10:20:47.952Z,99.99
2023-03-07T10:21:47.930Z,99.00
2023-03-07T10:22:47.930Z,99.52
2023-03-07T10:23:47.955Z,95.59
2023-03-07T10:24:47.900Z,98.69
2023-03-07T10:25:47.889Z,95.07
2023-03-07T10:26:47.886Z,99.99
2023-03-07T10:27:47.881Z,99.99
2023-03-07T10:28:47.857Z,99.99
2023-03-07T10:29:47.839Z,99.99
2023-03-07T10:30:47.830Z,99.99
2023-03-07T10:31:47.839Z,99.05
2023-03-07T10:32:47.903Z,98.43
2023-03-07T10:33:47.800Z,99.99
2023-03-07T10:34:47.791Z,98.84
2023-03-07T10:35:47.795Z,96.88
2023-03-07T10:36:49.050Z,98.01
2023-03-07T10:37:47.750Z,98.74
2023-03-07T10:38:47.741Z,95.18
2023-03-07T10:39:47.727Z,99.72
2023-03-07T10:40:47.721Z,96.37
2023-03-07T10:41:47.707Z,99.94
2023-03-07T10:42:47.699Z,99.99
2023-03-07T10:43:47.681Z,99.99
2023-03-07T10:44:47.673Z,99.99
2023-03-07T10:45:47.826Z,99.99
2023-03-07T10:46:55.739Z,99.99
2023-03-07T10:47:48.681Z,99.99
2023-03-07T10:48:47.664Z,99.99
2023-03-07T10:49:47.615Z,99.99
2023-03-07T10:50:47.611Z,99.99
2023-03-07T10:51:47.601Z,99.99
2023-03-07T10:52:47.603Z,99.99
2023-03-07T10:53:47.572Z,99.99
2023-03-07T10:54:47.564Z,99.99
2023-03-07T10:55:47.549Z,99.99
2023-03-07T10:56:47.548Z,99.99
2023-03-07T10:57:47.530Z,99.99
2023-03-07T10:58:47.516Z,99.99
2023-03-07T10:59:47.542Z,99.99
2023-03-07T11:00:47.494Z,99.99
2023-03-07T11:01:47.527Z,99.99
2023-03-07T11:02:47.479Z,99.99
2023-03-07T11:03:53.584Z,99.99
2023-03-07T11:04:47.619Z,99.99
2023-03-07T11:05:47.438Z,99.99
2023-03-07T11:06:47.427Z,99.99
2023-03-07T11:07:47.421Z,99.99
2023-03-07T11:08:47.404Z,99.99
2023-03-07T11:09:47.400Z,99.99
2023-03-07T11:10:47.379Z,99.99
2023-03-07T11:11:47.379Z,99.99
2023-03-07T11:12:47.359Z,99.99
2023-03-07T11:13:47.348Z,99.99
2023-03-07T11:14:47.334Z,99.99
2023-03-07T11:15:47.363Z,99.99
2023-03-07T11:16:47.487Z,99.99
2023-03-07T11:17:47.310Z,99.99
2023-03-07T11:18:47.292Z,99.99
2023-03-07T11:19:47.279Z,99.99
2023-03-07T11:20:47.310Z,99.99
2023-03-07T11:21:47.259Z,99.99
2023-03-07T11:22:47.270Z,99.99
2023-03-07T11:23:47.285Z,99.99
2023-03-07T11:24:47.222Z,99.99
2023-03-07T11:25:47.212Z,99.99
2023-03-07T11:26:47.210Z,99.99
2023-03-07T11:27:47.203Z,99.99
2023-03-07T11:28:47.182Z,99.99
2023-03-07T11:29:47.169Z,99.99
2023-03-07T11:30:47.179Z,99.99
2023-03-07T11:31:47.298Z,99.99
2023-03-07T11:32:47.201Z,99.99
2023-03-07T11:33:58.480Z,99.99
2023-03-07T11:34:48.142Z,99.99
2023-03-07T11:35:47.145Z,99.99
2023-03-07T11:36:47.116Z,99.99
2023-03-07T11:37:47.096Z,99.99
2023-03-07T11:38:47.073Z,99.99
2023-03-07T11:39:47.058Z,99.99
2023-03-07T11:40:47.050Z,99.99
2023-03-07T11:41:47.043Z,99.99
2023-03-07T11:42:47.034Z,99.99
2023-03-07T11:43:47.017Z,99.99
2023-03-07T11:44:47.007Z,99.99
2023-03-07T11:45:46.994Z,99.99
2023-03-07T11:46:47.063Z,99.99
2023-03-07T11:47:46.986Z,99.99
2023-03-07T11:48:46.964Z,99.99
2023-03-07T11:49:46.982Z,99.99
2023-03-07T11:50:46.941Z,99.99
2023-03-07T11:51:46.926Z,99.99
2023-03-07T11:52:46.953Z,99.99
2023-03-07T11:53:46.905Z,99.99
2023-03-07T11:54:46.899Z,99.99
2023-03-07T11:55:46.886Z,99.99
2023-03-07T11:56:46.875Z,99.99
2023-03-07T11:57:46.863Z,99.99
2023-03-07T11:58:46.856Z,99.99
2023-03-07T11:59:46.853Z,99.99
2023-03-07T12:00:46.834Z,99.99
2023-03-07T12:01:46.825Z,99.99
2023-03-07T12:02:46.871Z,99.99
2023-03-07T12:03:46.799Z,99.99
2023-03-07T12:04:46.790Z,99.99
2023-03-07T12:05:46.927Z,99.99
2023-03-07T12:06:46.893Z,96.53
2023-03-07T12:07:46.763Z,98.50
2023-03-07T12:08:46.789Z,93.81
2023-03-07T12:09:46.885Z,94.84
2023-03-07T12:10:46.725Z,91.58
2023-03-07T12:11:46.710Z,89.98
2023-03-07T12:12:46.713Z,97.20
2023-03-07T12:13:46.697Z,99.68
2023-03-07T12:14:46.686Z,94.99
2023-03-07T12:15:46.668Z,90.55
2023-03-07T12:16:46.659Z,89.87
2023-03-07T12:17:46.648Z,89.67
2023-03-07T12:18:46.636Z,93.28
2023-03-07T12:19:46.636Z,91.52
2023-03-07T12:20:46.615Z,95.50
2023-03-07T12:21:46.608Z,89.83
2023-03-07T12:22:46.593Z,95.50
2023-03-07T12:23:46.578Z,89.79
2023-03-07T12:24:46.597Z,94.32
2023-03-07T12:25:46.658Z,88.82
2023-03-07T12:26:46.705Z,81.81
2023-03-07T12:27:46.540Z,79.38
2023-03-07T12:28:46.540Z,82.84
2023-03-07T12:29:46.514Z,79.44
2023-03-07T12:30:46.507Z,80.89
2023-03-07T12:31:46.591Z,79.86
2023-03-07T12:32:46.601Z,82.02
2023-03-07T12:33:46.469Z,78.31
2023-03-07T12:34:46.463Z,81.81
2023-03-07T12:35:46.512Z,83.15
2023-03-07T12:36:46.444Z,77.31
2023-03-07T12:37:46.427Z,79.07
2023-03-07T12:38:46.420Z,86.87
2023-03-07T12:39:46.407Z,79.96
2023-03-07T12:40:46.423Z,81.51
2023-03-07T12:41:46.386Z,83.87
2023-03-07T12:42:46.376Z,77.28
2023-03-07T12:43:46.361Z,76.66
2023-03-07T12:44:46.355Z,79.44
2023-03-07T12:45:46.479Z,78.41
2023-03-07T12:46:46.328Z,74.74
2023-03-07T12:47:46.321Z,76.29
2023-03-07T12:48:46.307Z,75.98
2023-03-07T12:49:50.057Z,75.15
2023-03-07T12:50:46.293Z,72.27
2023-03-07T12:51:46.274Z,72.16
2023-03-07T12:52:46.412Z,72.47
2023-03-07T12:53:46.253Z,72.58
2023-03-07T12:54:46.253Z,76.80
2023-03-07T12:55:46.231Z,75.84
2023-03-07T12:56:46.244Z,74.40
2023-03-07T12:57:46.209Z,74.50
2023-03-07T12:58:46.204Z,77.55
2023-03-07T12:59:46.187Z,73.64
2023-03-07T13:00:46.279Z,72.20
2023-03-07T13:01:46.200Z,72.81
2023-03-07T13:02:46.155Z,71.51
2023-03-07T13:03:46.225Z,72.71
2023-03-07T13:04:46.130Z,73.40
2023-03-07T13:05:46.115Z,71.44